createdAt,value
2022-09-09T00:02:16.747Z,100985.09
2022-09-09T00:04:50.638Z,100989.38
2022-09-09T00:07:27.515Z,100990.31
2022-09-09T00:10:04.837Z,100990.50
2022-09-09T00:12:39.011Z,100987.50
2022-09-09T00:15:15.304Z,100982.34
2022-09-09T00:17:53.668Z,100989.06
2022-09-09T00:20:29.989Z,100992.81
2022-09-09T00:23:07.598Z,100991.69
2022-09-09T00:25:42.403Z,100995.84
2022-09-09T00:28:20.243Z,100992.00
2022-09-09T00:30:50.490Z,100990.50
2022-09-09T00:33:23.210Z,100992.28
2022-09-09T00:35:53.161Z,100995.47
2022-09-09T00:38:27.345Z,100993.69
2022-09-09T00:41:01.785Z,101015.84
2022-09-09T00:43:33.287Z,101004.13
2022-09-09T00:46:25.961Z,100995.06
2022-09-09T00:49:02.367Z,100985.81
2022-09-09T00:51:47.241Z,100986.28
2022-09-09T00:54:33.298Z,100989.16
2022-09-09T00:57:15.114Z,100990.56
2022-09-09T00:59:50.146Z,100987.84
2022-09-09T01:02:29.392Z,100989.06
2022-09-09T01:05:09.604Z,100988.56
2022-09-09T01:07:37.919Z,100988.13
2022-09-09T01:10:13.900Z,100988.31
2022-09-09T01:12:44.818Z,100989.31
2022-09-09T01:15:25.737Z,100972.50
2022-09-09T01:18:02.478Z,100984.34
2022-09-09T01:20:43.615Z,100982.84
2022-09-09T01:23:29.393Z,100983.50
2022-09-09T01:26:27.537Z,100955.50
2022-09-09T01:28:58.323Z,100983.31
2022-09-09T01:31:38.644Z,100985.00
2022-09-09T01:34:13.646Z,100977.56
2022-09-09T01:36:47.971Z,100981.28
2022-09-09T01:39:16.563Z,100974.00
2022-09-09T01:41:47.140Z,100974.38
2022-09-09T01:44:19.329Z,100966.09
2022-09-09T01:46:47.898Z,100974.19
2022-09-09T01:49:21.594Z,100988.34
2022-09-09T01:51:54.508Z,100992.38
2022-09-09T01:54:33.020Z,100991.72
2022-09-09T01:57:13.660Z,100982.13
2022-09-09T01:59:57.094Z,100974.38
2022-09-09T02:02:32.677Z,100978.44
2022-09-09T02:05:23.938Z,100977.63
2022-09-09T02:07:57.562Z,100902.38
2022-09-09T02:10:49.335Z,100974.25
2022-09-09T02:13:34.290Z,100982.06
2022-09-09T02:16:09.250Z,100982.44
2022-09-09T02:18:42.387Z,100980.94
2022-09-09T02:21:14.822Z,100980.81
2022-09-09T02:23:44.559Z,100986.88
2022-09-09T02:26:21.256Z,100985.19
2022-09-09T02:28:58.706Z,100973.69
2022-09-09T02:31:27.875Z,100988.06
2022-09-09T02:34:04.249Z,100985.50
2022-09-09T02:36:36.399Z,100985.19
2022-09-09T02:39:07.521Z,100989.56
2022-09-09T02:41:41.028Z,100998.16
2022-09-09T02:44:13.805Z,101002.72
2022-09-09T02:46:59.760Z,100998.84
2022-09-09T02:49:35.821Z,100963.56
2022-09-09T02:52:09.102Z,100965.44
2022-09-09T02:54:40.791Z,100995.22
2022-09-09T02:57:17.156Z,100995.84
2022-09-09T02:59:50.941Z,100987.41
2022-09-09T03:02:19.847Z,100984.03
2022-09-09T03:04:53.147Z,100982.94
2022-09-09T03:07:22.496Z,100974.81
2022-09-09T03:09:55.968Z,100978.38
2022-09-09T03:12:27.370Z,100968.28
2022-09-09T03:14:57.073Z,100962.53
2022-09-09T03:17:26.116Z,100967.94
2022-09-09T03:19:57.240Z,100977.22
2022-09-09T03:22:26.374Z,100976.41
2022-09-09T03:24:55.977Z,100969.75
2022-09-09T03:27:24.850Z,100986.41
2022-09-09T03:29:57.010Z,100988.47
2022-09-09T03:32:28.104Z,100984.94
2022-09-09T03:34:58.415Z,100977.00
2022-09-09T03:37:27.271Z,100971.22
2022-09-09T03:39:56.590Z,100976.28
2022-09-09T03:42:25.706Z,100985.22
2022-09-09T03:44:58.968Z,100987.06
2022-09-09T03:47:27.904Z,100976.88
2022-09-09T03:50:02.564Z,100981.06
2022-09-09T03:52:31.837Z,100976.84
2022-09-09T03:55:00.239Z,100966.22
2022-09-09T03:57:31.068Z,100974.13
2022-09-09T04:00:02.141Z,100976.16
2022-09-09T04:02:34.066Z,100982.09
2022-09-09T04:05:02.557Z,100980.72
2022-09-09T04:07:30.790Z,100971.44
2022-09-09T04:09:59.021Z,100965.38
2022-09-09T04:12:27.508Z,100961.50
2022-09-09T04:14:55.856Z,100965.03
2022-09-09T04:17:25.543Z,100967.50
2022-09-09T04:19:53.857Z,100965.78
2022-09-09T04:22:23.555Z,100964.44
2022-09-09T04:24:51.989Z,100969.28
2022-09-09T04:27:21.531Z,100969.78
2022-09-09T04:29:49.812Z,100982.09
2022-09-09T04:32:18.682Z,100986.81
2022-09-09T04:34:49.203Z,100983.28
2022-09-09T04:37:17.893Z,100983.44
2022-09-09T04:39:46.336Z,100984.28
2022-09-09T04:42:14.777Z,100985.63
2022-09-09T04:44:46.281Z,100995.56
2022-09-09T04:47:15.971Z,100995.22
2022-09-09T04:49:44.256Z,100992.97
2022-09-09T04:52:14.234Z,100997.69
2022-09-09T04:54:42.510Z,100994.31
2022-09-09T04:57:17.939Z,101000.06
2022-09-09T04:59:47.553Z,101008.34
2022-09-09T05:02:16.597Z,101010.50
2022-09-09T05:04:44.921Z,101011.84
2022-09-09T05:07:15.802Z,101020.94
2022-09-09T05:09:44.341Z,101014.88
2022-09-09T05:12:12.597Z,101014.34
2022-09-09T05:14:47.853Z,101013.69
2022-09-09T05:17:17.447Z,101024.47
2022-09-09T05:19:45.953Z,101039.13
2022-09-09T05:22:15.688Z,101034.75
2022-09-09T05:24:47.117Z,101036.78
2022-09-09T05:27:16.231Z,101037.81
2022-09-09T05:29:45.709Z,101043.19
2022-09-09T05:32:16.550Z,101043.50
2022-09-09T05:34:48.320Z,101036.44
2022-09-09T05:37:19.368Z,101027.66
2022-09-09T05:39:47.698Z,101034.09
2022-09-09T05:42:16.197Z,101040.63
2022-09-09T05:44:45.975Z,101035.50
2022-09-09T05:47:14.470Z,101023.34
2022-09-09T05:49:43.786Z,101032.28
2022-09-09T05:52:12.364Z,101034.97
2022-09-09T05:54:43.256Z,101037.38
2022-09-09T05:57:11.684Z,101033.47
2022-09-09T05:59:40.024Z,101025.88
2022-09-09T06:02:08.651Z,101032.22
2022-09-09T06:04:39.690Z,101041.31
2022-09-09T06:07:08.122Z,101040.94
2022-09-09T06:09:37.099Z,101046.72
2022-09-09T06:12:07.706Z,101059.56
2022-09-09T06:14:38.001Z,101054.63
2022-09-09T06:17:07.738Z,101059.94
2022-09-09T06:19:37.062Z,101043.66
2022-09-09T06:22:06.516Z,101075.97
2022-09-09T06:24:37.892Z,101089.13
2022-09-09T06:27:08.418Z,101093.16
2022-09-09T06:29:38.245Z,101077.44
2022-09-09T06:32:09.610Z,101076.22
2022-09-09T06:34:38.185Z,101085.38
2022-09-09T06:37:07.694Z,101087.69
2022-09-09T06:39:44.510Z,101072.22
2022-09-09T06:42:14.576Z,101091.16
2022-09-09T06:44:53.406Z,101091.63
2022-09-09T06:47:37.445Z,101092.31
2022-09-09T06:50:07.209Z,101089.91
2022-09-09T06:52:36.745Z,101098.66
2022-09-09T06:55:06.047Z,101094.22
2022-09-09T06:57:37.895Z,101097.41
2022-09-09T07:00:18.066Z,101094.69
2022-09-09T07:02:46.520Z,101104.97
2022-09-09T07:05:16.439Z,101113.03
2022-09-09T07:07:46.819Z,101110.44
2022-09-09T07:10:20.914Z,101100.25
2022-09-09T07:12:54.420Z,101100.00
2022-09-09T07:15:25.951Z,101100.84
2022-09-09T07:17:55.600Z,101108.22
2022-09-09T07:20:23.990Z,101103.00
2022-09-09T07:22:57.469Z,101104.03
2022-09-09T07:25:25.800Z,101101.88
2022-09-09T07:27:55.693Z,101098.50
2022-09-09T07:30:27.633Z,101100.00
2022-09-09T07:32:57.920Z,101101.13
2022-09-09T07:35:27.302Z,101091.41
2022-09-09T07:37:55.507Z,101093.56
2022-09-09T07:40:23.935Z,101094.69
2022-09-09T07:42:52.651Z,101092.56
2022-09-09T07:45:23.396Z,101097.84
2022-09-09T07:47:52.246Z,101098.31
2022-09-09T07:50:20.949Z,101105.34
2022-09-09T07:52:49.629Z,101113.75
2022-09-09T07:55:18.108Z,101115.94
2022-09-09T07:57:46.989Z,101119.19
2022-09-09T08:00:17.271Z,101114.44
2022-09-09T08:02:55.338Z,101118.16
2022-09-09T08:05:24.664Z,101113.31
2022-09-09T08:07:53.001Z,101117.81
2022-09-09T08:10:21.684Z,101116.13
2022-09-09T08:13:14.633Z,101115.94
2022-09-09T08:15:40.822Z,101118.47
2022-09-09T08:18:10.904Z,101126.22
2022-09-09T08:20:39.979Z,101129.38
2022-09-09T08:23:08.692Z,101139.09
2022-09-09T08:25:37.265Z,101123.66
2022-09-09T08:28:05.523Z,101139.38
2022-09-09T08:30:33.919Z,101117.31
2022-09-09T08:33:02.339Z,101141.75
2022-09-09T08:35:33.638Z,101139.53
2022-09-09T08:38:04.631Z,101155.28
2022-09-09T08:40:41.696Z,101149.75
2022-09-09T08:43:10.571Z,101150.84
2022-09-09T08:45:50.643Z,101158.63
2022-09-09T08:48:36.789Z,101161.78
2022-09-09T08:51:09.821Z,101169.34
2022-09-09T08:53:44.768Z,101164.16
2022-09-09T08:56:16.709Z,101097.28
2022-09-09T08:58:52.749Z,101173.03
2022-09-09T09:01:43.149Z,101161.22
2022-09-09T09:04:32.515Z,101169.63
2022-09-09T09:07:10.899Z,101168.38
2022-09-09T09:09:48.735Z,101170.28
2022-09-09T09:12:20.434Z,101161.50
2022-09-09T09:14:50.761Z,101172.00
2022-09-09T09:17:22.296Z,101165.78
2022-09-09T09:19:52.020Z,101170.16
2022-09-09T09:22:23.376Z,101184.19
2022-09-09T09:24:57.567Z,101187.56
2022-09-09T09:27:34.334Z,101179.84
2022-09-09T09:30:27.157Z,101185.69
2022-09-09T09:33:05.076Z,101187.56
2022-09-09T09:35:37.342Z,101183.41
2022-09-09T09:41:07.122Z,101193.72
2022-09-09T09:43:37.346Z,101192.91
2022-09-09T09:46:24.966Z,101193.97
2022-09-09T09:49:00.107Z,101153.13
2022-09-09T09:51:31.762Z,101192.59
2022-09-09T09:54:17.312Z,101193.91
2022-09-09T09:56:50.114Z,101196.41
2022-09-09T09:59:38.594Z,101197.06
2022-09-09T10:02:19.177Z,101197.72
2022-09-09T10:04:51.346Z,101210.72
2022-09-09T10:07:22.599Z,101197.56
2022-09-09T10:09:56.021Z,101203.22
2022-09-09T10:12:37.914Z,101201.34
2022-09-09T10:15:18.950Z,101200.75
2022-09-09T10:17:57.213Z,101197.22
2022-09-09T10:20:38.719Z,101198.88
2022-09-09T10:23:21.806Z,101196.16
2022-09-09T10:26:09.870Z,101192.78
2022-09-09T10:29:04.318Z,101188.56
2022-09-09T10:31:39.561Z,101192.66
2022-09-09T10:34:21.215Z,101198.91
2022-09-09T10:36:52.589Z,101190.22
2022-09-09T10:39:34.797Z,101191.88
2022-09-09T10:42:10.120Z,101190.28
2022-09-09T10:45:03.309Z,101186.59
2022-09-09T10:48:01.386Z,101180.69
2022-09-09T10:51:03.986Z,101175.72
2022-09-09T10:53:46.897Z,101177.63
2022-09-09T10:56:20.944Z,101172.56
2022-09-09T10:58:55.648Z,101172.56
2022-09-09T11:01:27.945Z,101153.88
2022-09-09T11:04:00.319Z,101159.78
2022-09-09T11:06:34.905Z,101160.13
2022-09-09T11:09:06.273Z,101166.88
2022-09-09T11:11:41.344Z,101154.16
2022-09-09T11:14:18.420Z,101145.31
2022-09-09T11:16:52.922Z,101143.56
2022-09-09T11:19:28.677Z,101140.75
2022-09-09T11:21:59.433Z,101139.94
2022-09-09T11:24:33.207Z,101131.28
2022-09-09T11:27:13.188Z,101131.50
2022-09-09T11:30:13.966Z,101119.03
2022-09-09T11:33:11.885Z,101121.69
2022-09-09T11:36:08.146Z,101132.28
2022-09-09T11:38:47.565Z,101125.31
2022-09-09T11:41:21.678Z,101118.66
2022-09-09T11:43:53.220Z,101123.81
2022-09-09T11:46:34.759Z,101127.63
2022-09-09T11:49:05.699Z,101101.88
2022-09-09T11:51:36.466Z,100992.53
2022-09-09T11:54:21.930Z,101125.28
2022-09-09T11:56:50.366Z,101127.22
2022-09-09T11:59:23.337Z,101124.97
2022-09-09T12:01:59.817Z,101113.84
2022-09-09T12:04:34.607Z,101133.13
2022-09-09T12:07:05.281Z,101128.84
2022-09-09T12:09:47.233Z,101129.06
2022-09-09T12:12:31.050Z,101131.34
2022-09-09T12:15:21.919Z,101136.56
2022-09-09T12:17:54.359Z,101103.78
2022-09-09T12:20:25.332Z,101129.06
2022-09-09T12:23:06.111Z,101128.91
2022-09-09T12:25:46.102Z,101132.88
2022-09-09T12:28:20.014Z,101132.16
2022-09-09T12:30:56.476Z,101125.25
2022-09-09T12:33:26.248Z,101135.00
2022-09-09T12:36:01.703Z,101133.56
2022-09-09T12:38:36.845Z,101129.28
2022-09-09T12:41:07.473Z,101128.78
2022-09-09T12:43:35.741Z,101122.34
2022-09-09T12:46:10.907Z,101129.09
2022-09-09T12:48:43.685Z,101128.69
2022-09-09T12:51:21.567Z,101117.31
2022-09-09T12:53:51.352Z,101115.31
2022-09-09T12:56:24.220Z,101043.22
2022-09-09T12:58:55.410Z,101117.50
2022-09-09T13:01:27.966Z,101114.88
2022-09-09T13:03:58.410Z,101112.25
2022-09-09T13:06:29.476Z,101111.56
2022-09-09T13:09:00.023Z,101113.69
2022-09-09T13:11:32.276Z,101113.09
2022-09-09T13:14:01.609Z,101112.13
2022-09-09T13:16:33.848Z,101109.53
2022-09-09T13:19:11.321Z,101119.44
2022-09-09T13:21:41.277Z,101106.25
2022-09-09T13:24:28.503Z,101105.97
2022-09-09T13:26:58.741Z,101065.34
2022-09-09T13:29:27.069Z,101108.81
2022-09-09T13:31:56.785Z,101107.38
2022-09-09T13:34:31.853Z,101095.16
2022-09-09T13:37:03.792Z,101100.44
2022-09-09T13:39:32.218Z,101109.69
2022-09-09T13:42:00.635Z,101103.28
2022-09-09T13:44:31.589Z,101110.19
2022-09-09T13:47:10.015Z,101100.91
2022-09-09T13:49:40.428Z,101107.69
2022-09-09T13:52:14.680Z,101106.34
2022-09-09T13:54:43.542Z,101098.41
2022-09-09T13:57:19.162Z,101097.22
2022-09-09T14:00:04.057Z,101104.00
2022-09-09T14:02:33.316Z,101101.34
2022-09-09T14:05:02.994Z,101101.50
2022-09-09T14:07:31.372Z,101099.06
2022-09-09T14:10:01.322Z,101103.59
2022-09-09T14:12:31.056Z,101108.72
2022-09-09T14:15:00.886Z,101111.81
2022-09-09T14:17:31.568Z,101099.41
2022-09-09T14:20:00.575Z,101107.50
2022-09-09T14:22:30.627Z,101098.94
2022-09-09T14:24:59.064Z,101100.84
2022-09-09T14:27:28.129Z,101100.25
2022-09-09T14:29:56.747Z,101101.78
2022-09-09T14:32:25.118Z,101096.91
2022-09-09T14:34:53.380Z,101087.03
2022-09-09T14:37:21.780Z,101089.19
2022-09-09T14:39:51.805Z,101087.53
2022-09-09T14:42:20.625Z,101055.25
2022-09-09T14:44:48.894Z,101084.47
2022-09-09T14:47:17.248Z,101092.81
2022-09-09T14:49:47.152Z,101093.75
2022-09-09T14:52:15.782Z,101078.13
2022-09-09T14:54:43.990Z,101088.84
2022-09-09T14:57:13.684Z,101086.94
2022-09-09T14:59:41.935Z,101089.44
2022-09-09T15:02:11.216Z,101091.94
2022-09-09T15:04:39.650Z,101094.44
2022-09-09T15:07:07.963Z,101099.91
2022-09-09T15:09:38.012Z,101093.59
2022-09-09T15:12:06.865Z,101100.41
2022-09-09T15:14:37.397Z,101106.34
2022-09-09T15:17:05.788Z,101106.63
2022-09-09T15:19:34.520Z,101102.53
2022-09-09T15:22:02.967Z,101116.38
2022-09-09T15:24:31.182Z,101115.28
2022-09-09T15:27:00.545Z,101117.78
2022-09-09T15:29:28.837Z,101113.50
2022-09-09T15:31:58.746Z,101112.09
2022-09-09T15:34:27.281Z,101105.31
2022-09-09T15:36:56.476Z,101109.78
2022-09-09T15:39:24.905Z,101111.94
2022-09-09T15:41:53.468Z,101103.59
2022-09-09T15:44:21.668Z,101100.03
2022-09-09T15:46:52.510Z,101107.53
2022-09-09T15:49:25.907Z,101099.53
2022-09-09T15:51:56.175Z,101091.22
2022-09-09T15:54:26.029Z,101098.16
2022-09-09T15:56:57.140Z,101094.22
2022-09-09T15:59:26.590Z,101099.13
2022-09-09T16:01:56.135Z,101093.84
2022-09-09T16:04:26.533Z,101096.94
2022-09-09T16:06:56.471Z,101092.13
2022-09-09T16:09:24.684Z,101086.88
2022-09-09T16:11:54.396Z,101052.41
2022-09-09T16:14:22.936Z,101085.88
2022-09-09T16:16:51.265Z,101085.13
2022-09-09T16:19:19.853Z,101085.47
2022-09-09T16:21:51.543Z,100966.25
2022-09-09T16:24:21.561Z,101078.53
2022-09-09T16:26:52.061Z,101059.28
2022-09-09T16:29:22.523Z,101082.13
2022-09-09T16:31:51.576Z,101077.81
2022-09-09T16:34:20.487Z,101071.53
2022-09-09T16:36:50.996Z,101067.56
2022-09-09T16:39:22.574Z,101043.56
2022-09-09T16:41:51.368Z,101061.78
2022-09-09T16:44:20.502Z,101059.13
2022-09-09T16:46:56.665Z,101060.41
2022-09-09T16:49:26.530Z,101058.16
2022-09-09T16:51:56.235Z,101057.78
2022-09-09T16:54:26.476Z,101058.91
2022-09-09T16:56:55.181Z,101053.13
2022-09-09T16:59:24.561Z,100899.84
2022-09-09T17:01:54.550Z,101060.66
2022-09-09T17:04:25.330Z,101059.66
2022-09-09T17:06:56.938Z,101056.97
2022-09-09T17:09:29.948Z,101058.13
2022-09-09T17:11:58.609Z,101058.63
2022-09-09T17:14:26.849Z,101055.72
2022-09-09T17:16:55.255Z,100968.75
2022-09-09T17:19:23.511Z,101077.00
2022-09-09T17:22:16.830Z,101072.25
2022-09-09T17:24:41.532Z,101079.03
2022-09-09T17:27:10.049Z,101087.47
2022-09-09T17:29:38.624Z,101084.34
2022-09-09T17:32:08.279Z,101081.47
2022-09-09T17:34:37.192Z,101076.69
2022-09-09T17:37:07.059Z,101073.75
2022-09-09T17:39:35.514Z,101069.38
2022-09-09T17:42:05.472Z,101044.63
2022-09-09T17:44:34.403Z,101078.72
2022-09-09T17:47:05.035Z,101077.09
2022-09-09T17:49:33.328Z,101073.56
2022-09-09T17:52:01.660Z,101073.34
2022-09-09T17:54:29.927Z,101080.75
2022-09-09T17:56:58.713Z,101083.72
2022-09-09T17:59:28.449Z,101089.19
2022-09-09T18:01:57.236Z,101088.81
2022-09-09T18:04:25.671Z,101090.09
2022-09-09T18:06:55.697Z,101093.25
2022-09-09T18:09:25.746Z,101091.41
2022-09-09T18:11:56.462Z,101094.34
2022-09-09T18:14:27.389Z,101092.69
2022-09-09T18:16:57.049Z,101095.25
2022-09-09T18:19:28.989Z,101101.31
2022-09-09T18:22:00.206Z,101108.22
2022-09-09T18:24:31.752Z,101106.72
2022-09-09T18:27:00.284Z,101107.16
2022-09-09T18:29:29.911Z,101111.34
2022-09-09T18:31:59.561Z,101114.88
2022-09-09T18:34:28.848Z,101117.19
2022-09-09T18:36:57.956Z,101116.34
2022-09-09T18:39:29.922Z,101072.16
2022-09-09T18:42:00.599Z,101123.88
2022-09-09T18:44:32.805Z,101125.75
2022-09-09T18:47:03.711Z,101129.94
2022-09-09T18:49:33.431Z,101110.84
2022-09-09T18:52:02.843Z,101133.91
2022-09-09T18:54:33.586Z,101133.69
2022-09-09T18:57:02.284Z,101112.75
2022-09-09T18:59:31.324Z,101142.47
2022-09-09T19:02:02.613Z,101151.25
2022-09-09T19:04:33.146Z,101156.66
2022-09-09T19:07:01.414Z,101157.50
2022-09-09T19:09:32.617Z,101146.31
2022-09-09T19:12:02.336Z,101167.53
2022-09-09T19:14:31.551Z,101055.16
2022-09-09T19:17:00.553Z,101192.41
2022-09-09T19:19:32.017Z,101192.13
2022-09-09T19:22:00.808Z,101195.84
2022-09-09T19:24:31.904Z,101206.72
2022-09-09T19:27:02.922Z,101207.94
2022-09-09T19:29:33.873Z,101215.25
2022-09-09T19:32:49.750Z,101205.19
2022-09-09T19:34:53.929Z,101219.13
2022-09-09T19:37:22.559Z,101221.84
2022-09-09T19:39:51.522Z,101227.00
2022-09-09T19:42:19.859Z,101221.59
2022-09-09T19:44:48.085Z,101224.31
2022-09-09T19:47:16.756Z,101230.13
2022-09-09T19:49:47.418Z,101229.47
2022-09-09T19:52:17.887Z,101240.34
2022-09-09T19:54:46.809Z,101244.50
2022-09-09T19:57:15.634Z,101238.03
2022-09-09T19:59:44.126Z,101242.03
2022-09-09T20:02:15.602Z,101245.59
2022-09-09T20:04:44.890Z,101244.50
2022-09-09T20:07:13.652Z,101246.75
2022-09-09T20:09:45.055Z,101231.47
2022-09-09T20:12:13.736Z,101252.00
2022-09-09T20:14:41.982Z,101249.88
2022-09-09T20:17:10.529Z,101245.06
2022-09-09T20:19:39.935Z,101255.66
2022-09-09T20:22:08.437Z,101211.97
2022-09-09T20:24:37.839Z,101258.88
2022-09-09T20:27:08.465Z,101259.91
2022-09-09T20:29:37.675Z,101267.78
2022-09-09T20:32:06.904Z,101267.75
2022-09-09T20:34:37.175Z,101268.72
2022-09-09T20:37:06.039Z,101273.22
2022-09-09T20:39:36.127Z,101269.41
2022-09-09T20:42:05.317Z,101272.09
2022-09-09T20:44:35.073Z,101270.22
2022-09-09T20:47:06.725Z,101270.50
2022-09-09T20:49:36.364Z,101268.19
2022-09-09T20:52:06.154Z,101269.97
2022-09-09T20:54:36.195Z,101252.66
2022-09-09T20:57:07.310Z,101259.78
2022-09-09T20:59:37.307Z,101265.38
2022-09-09T21:02:05.768Z,101262.28
2022-09-09T21:04:34.206Z,101262.75
2022-09-09T21:07:02.626Z,101252.19
2022-09-09T21:09:31.173Z,101255.53
2022-09-09T21:11:59.631Z,101246.94
2022-09-09T21:14:28.577Z,101257.88
2022-09-09T21:16:58.207Z,101263.94
2022-09-09T21:19:26.632Z,101256.84
2022-09-09T21:21:54.872Z,101257.22
2022-09-09T21:24:23.146Z,101264.72
2022-09-09T21:26:51.407Z,101261.34
2022-09-09T21:29:19.758Z,101263.22
2022-09-09T21:31:48.019Z,101259.28
2022-09-09T21:34:18.533Z,101268.06
2022-09-09T21:36:46.948Z,101265.75
2022-09-09T21:39:16.310Z,101259.66
2022-09-09T21:41:44.649Z,101264.63
2022-09-09T21:44:15.224Z,101262.09
2022-09-09T21:46:44.516Z,101266.03
2022-09-09T21:49:12.848Z,101264.56
2022-09-09T21:51:42.612Z,101270.16
2022-09-09T21:54:10.880Z,101270.31
2022-09-09T21:56:39.676Z,101279.66
2022-09-09T21:59:08.899Z,101276.47
2022-09-09T22:01:37.261Z,101282.09
2022-09-09T22:04:05.632Z,101282.47
2022-09-09T22:06:34.262Z,101287.97
2022-09-09T22:09:04.089Z,101279.63
2022-09-09T22:11:32.519Z,101263.59
2022-09-09T22:14:02.679Z,101287.06
2022-09-09T22:16:34.233Z,101296.50
2022-09-09T22:19:03.128Z,101292.47
2022-09-09T22:21:36.954Z,101276.25
2022-09-09T22:24:08.242Z,101282.69
2022-09-09T22:26:38.822Z,101286.59
2022-09-09T22:29:08.065Z,101285.84
2022-09-09T22:31:37.285Z,101288.44
2022-09-09T22:34:06.264Z,101294.06
2022-09-09T22:36:35.152Z,101296.09
2022-09-09T22:39:03.575Z,101294.22
2022-09-09T22:41:33.990Z,101309.94
2022-09-09T22:44:02.427Z,101306.56
2022-09-09T22:46:30.857Z,101302.19
2022-09-09T22:48:59.312Z,101301.91
2022-09-09T22:51:30.106Z,101300.13
2022-09-09T22:53:59.893Z,101287.09
2022-09-09T22:56:28.322Z,101303.75
2022-09-09T22:58:58.688Z,101297.63
2022-09-09T23:01:29.686Z,101296.97
2022-09-09T23:04:01.769Z,101295.81
2022-09-09T23:06:31.830Z,101295.25
2022-09-09T23:09:01.852Z,101291.16
2022-09-09T23:11:31.923Z,101276.03
2022-09-09T23:14:03.851Z,101282.03
2022-09-09T23:16:34.507Z,101282.19
2022-09-09T23:19:03.217Z,101281.94
2022-09-09T23:21:32.467Z,101285.47
2022-09-09T23:24:01.236Z,101284.44
2022-09-09T23:26:30.081Z,101283.63
2022-09-09T23:28:59.983Z,101248.59
2022-09-09T23:31:33.104Z,101252.16
2022-09-09T23:34:02.242Z,101234.69
2022-09-09T23:36:31.327Z,101286.03
2022-09-09T23:39:01.801Z,101290.44
2022-09-09T23:41:30.649Z,101289.09
2022-09-09T23:43:59.121Z,101286.59
2022-09-09T23:46:31.641Z,101291.16
2022-09-09T23:49:00.482Z,101289.84
2022-09-09T23:51:31.106Z,101281.25
2022-09-09T23:54:04.856Z,101291.22
2022-09-09T23:56:34.940Z,101290.22
2022-09-09T23:59:03.269Z,101289.19
